Time;durP1;ratioP1;P1;durP2;ratioP2;P2;SDS_P1;SDS_P2;PMS_P1;PMS_P2;Temp;Humidity;BMP_temperature;BMP_pressure;BME280_temperature;BME280_humidity;BME280_pressure;Samples;Min_cycle;Max_cycle;Signal;HPM_P1;HPM_P2
2022/10/02 00:00:16;;;;;;;0.00;0.00;;;16.30;90.40;;;;;;4146423;28;20111;-66
2022/10/02 00:03:02;;;;;;;0.00;0.00;;;16.30;90.30;;;;;;4161047;28;20049;-65
2022/10/02 00:05:47;;;;;;;0.00;0.00;;;16.30;90.30;;;;;;4160998;28;20047;-66
2022/10/02 00:08:32;;;;;;;0.00;0.00;;;16.30;90.30;;;;;;4144490;28;20049;-66
2022/10/02 00:11:19;;;;;;;0.17;0.17;;;16.30;90.30;;;;;;4148195;28;20071;-66
2022/10/02 00:14:04;;;;;;;0.00;0.00;;;16.20;90.40;;;;;;4144529;28;20048;-66
2022/10/02 00:16:48;;;;;;;0.00;0.00;;;16.20;90.50;;;;;;4144374;28;20060;-67
2022/10/02 00:19:29;;;;;;;0.00;0.00;;;16.20;90.50;;;;;;4144463;28;20052;-66
2022/10/02 00:22:36;;;;;;;0.00;0.00;;;16.20;90.60;;;;;;4144749;28;20061;-66
2022/10/02 00:25:25;;;;;;;0.08;0.08;;;16.20;90.60;;;;;;4144169;28;20132;-66
2022/10/02 00:28:18;;;;;;;0.00;0.00;;;16.20;90.60;;;;;;4143861;28;20387;-66
2022/10/02 00:31:26;;;;;;;0.00;0.00;;;16.20;90.60;;;;;;4150666;28;20119;-66
2022/10/02 00:34:20;;;;;;;0.00;0.00;;;16.20;91.10;;;;;;4160254;28;20191;-66
2022/10/02 00:37:12;;;;;;;0.00;0.00;;;16.20;90.70;;;;;;4160155;28;20056;-65
2022/10/02 00:39:55;;;;;;;;;;;16.20;90.80;;;;;;4158472;28;20065;-66
2022/10/02 00:43:05;;;;;;;0.00;0.00;;;16.20;90.80;;;;;;4159565;28;19931;-66
2022/10/02 00:46:04;;;;;;;0.00;0.00;;;16.20;90.80;;;;;;4160195;28;20056;-66
2022/10/02 00:48:54;;;;;;;0.30;0.30;;;16.10;90.80;;;;;;4146702;28;20044;-66
2022/10/02 00:51:56;;;;;;;0.32;0.32;;;16.20;90.90;;;;;;4160100;28;20056;-66
2022/10/02 00:55:03;;;;;;;0.00;0.00;;;16.20;90.90;;;;;;4160279;28;20143;-66
2022/10/02 00:57:56;;;;;;;0.00;0.00;;;16.20;90.90;;;;;;4158065;28;20052;-66
2022/10/02 01:00:39;;;;;;;0.00;0.00;;;16.20;90.90;;;;;;4143739;28;20872;-66
2022/10/02 01:03:26;;;;;;;0.00;0.00;;;16.20;90.90;;;;;;4143948;28;20056;-66
2022/10/02 01:06:08;;;;;;;0.00;0.00;;;16.20;91.00;;;;;;4143613;28;20411;-66
2022/10/02 01:08:50;;;;;;;0.03;0.03;;;16.20;90.90;;;;;;4143866;28;20053;-66
2022/10/02 01:11:33;;;;;;;0.00;0.00;;;16.20;90.90;;;;;;4158384;28;20232;-66
2022/10/02 01:14:14;;;;;;;0.00;0.00;;;16.20;91.00;;;;;;4160007;28;20406;-66
2022/10/02 01:16:55;;;;;;;0.00;0.00;;;16.20;91.00;;;;;;4152728;28;20068;-66
2022/10/02 01:19:41;;;;;;;0.70;0.70;;;16.20;91.00;;;;;;4143862;28;20107;-66
2022/10/02 01:22:31;;;;;;;0.00;0.00;;;16.20;91.40;;;;;;4157442;28;20060;-66
2022/10/02 01:25:13;;;;;;;0.00;0.00;;;16.20;91.10;;;;;;4150917;28;20065;-67
2022/10/02 01:27:54;;;;;;;0.00;0.00;;;16.20;91.10;;;;;;4143511;28;20052;-66
2022/10/02 01:30:36;;;;;;;2.10;0.52;;;16.20;91.10;;;;;;4143570;28;20061;-66
2022/10/02 01:33:18;;;;;;;0.00;0.00;;;16.20;91.00;;;;;;4147590;28;20391;-66
2022/10/02 01:35:59;;;;;;;0.00;0.00;;;16.20;91.10;;;;;;4145986;28;20072;-65
2022/10/02 01:38:40;;;;;;;0.00;0.00;;;16.20;91.10;;;;;;4143152;28;20053;-66
2022/10/02 01:41:23;;;;;;;0.35;0.35;;;16.20;91.10;;;;;;4142953;28;20080;-65
2022/10/02 01:44:04;;;;;;;0.00;0.00;;;16.20;91.00;;;;;;4142737;28;20056;-66
2022/10/02 01:46:53;;;;;;;0.00;0.00;;;16.20;91.10;;;;;;4142731;28;20072;-66
2022/10/02 01:49:57;;;;;;;0.57;0.57;;;16.20;91.00;;;;;;4150021;28;20187;-66
2022/10/02 01:52:47;;;;;;;0.00;0.00;;;16.20;91.00;;;;;;4159035;28;20052;-65
2022/10/02 01:55:39;;;;;;;0.00;0.00;;;16.20;91.00;;;;;;4159489;28;20049;-66
2022/10/02 01:58:29;;;;;;;0.00;0.00;;;16.20;91.00;;;;;;4151365;28;20126;-66
2022/10/02 02:01:17;;;;;;;0.00;0.00;;;16.20;90.90;;;;;;4142964;28;20052;-66
2022/10/02 02:04:05;;;;;;;0.00;0.00;;;16.20;90.90;;;;;;4143002;28;20222;-66
2022/10/02 02:06:54;;;;;;;0.00;0.00;;;16.20;90.90;;;;;;4142634;28;20053;-65
2022/10/02 02:09:39;;;;;;;0.00;0.00;;;16.20;90.90;;;;;;4148827;28;20048;-66
2022/10/02 02:12:27;;;;;;;0.00;0.00;;;16.10;90.90;;;;;;4142725;28;20473;-66
2022/10/02 02:15:16;;;;;;;0.00;0.00;;;16.10;91.30;;;;;;4142848;28;20157;-66
2022/10/02 02:18:03;;;;;;;0.65;0.65;;;16.10;90.90;;;;;;4141518;28;20200;-66
2022/10/02 02:20:47;;;;;;;0.77;0.77;;;16.10;90.90;;;;;;4142970;28;20120;-66
2022/10/02 02:23:33;;;;;;;0.00;0.00;;;16.10;90.90;;;;;;4142881;28;20091;-66
2022/10/02 02:26:17;;;;;;;0.00;0.00;;;16.10;91.30;;;;;;4142969;28;20069;-66
2022/10/02 02:29:02;;;;;;;0.00;0.00;;;16.10;90.90;;;;;;4153849;28;20060;-66
2022/10/02 02:31:49;;;;;;;0.00;0.00;;;16.10;90.90;;;;;;4142760;28;20107;-66
2022/10/02 02:34:33;;;;;;;0.00;0.00;;;16.10;90.90;;;;;;4142569;28;20128;-66
2022/10/02 02:37:18;;;;;;;0.30;0.30;;;16.10;90.90;;;;;;4142409;28;20124;-65
2022/10/02 02:40:04;;;;;;;0.00;0.00;;;16.10;90.90;;;;;;4142622;28;20045;-65
2022/10/02 02:42:51;;;;;;;0.35;0.35;;;16.10;90.90;;;;;;4157820;28;20060;-65
2022/10/02 02:45:36;;;;;;;0.00;0.00;;;16.10;90.90;;;;;;4157373;28;20898;-65
2022/10/02 02:48:22;;;;;;;0.00;0.00;;;16.10;91.00;;;;;;4142574;28;20111;-66
2022/10/02 02:51:07;;;;;;;0.00;0.00;;;16.10;91.00;;;;;;4142673;28;20088;-66
2022/10/02 02:53:53;;;;;;;0.00;0.00;;;16.10;90.90;;;;;;4141460;28;20083;-66
2022/10/02 02:56:35;;;;;;;0.00;0.00;;;16.10;91.00;;;;;;4141933;28;20422;-66
2022/10/02 02:59:20;;;;;;;0.00;0.00;;;16.10;91.00;;;;;;4145446;28;20052;-66
2022/10/02 03:02:01;;;;;;;1.05;0.95;;;16.10;91.00;;;;;;4156103;28;20099;-66
2022/10/02 03:04:43;;;;;;;0.00;0.00;;;16.10;91.10;;;;;;4158556;28;20065;-65
2022/10/02 03:07:24;;;;;;;0.00;0.00;;;16.10;91.10;;;;;;4158515;28;20065;-65
2022/10/02 03:10:14;;;;;;;0.00;0.00;;;16.10;91.10;;;;;;4158024;28;20398;-66
2022/10/02 03:13:07;;;;;;;0.00;0.00;;;16.10;91.10;;;;;;4158196;28;20143;-65
2022/10/02 03:16:03;;;;;;;0.00;0.00;;;16.10;91.00;;;;;;4157932;28;20470;-66
2022/10/02 03:18:56;;;;;;;0.00;0.00;;;16.00;91.00;;;;;;4148725;28;20061;-67
2022/10/02 03:21:45;;;;;;;0.00;0.00;;;16.10;91.10;;;;;;4143907;28;20108;-67
2022/10/02 03:24:31;;;;;;;0.00;0.00;;;16.10;91.10;;;;;;4144999;28;20053;-67
2022/10/02 03:27:17;;;;;;;0.00;0.00;;;16.00;91.10;;;;;;4145015;28;20057;-66
2022/10/02 03:30:03;;;;;;;0.00;0.00;;;16.00;91.10;;;;;;4145032;28;20065;-65
2022/10/02 03:32:46;;;;;;;0.00;0.00;;;16.00;91.10;;;;;;4144925;28;20100;-65
2022/10/02 03:35:29;;;;;;;0.00;0.00;;;16.00;91.10;;;;;;4144822;28;20057;-65
2022/10/02 03:38:13;;;;;;;0.00;0.00;;;16.00;91.10;;;;;;4145373;28;20545;-66
2022/10/02 03:40:56;;;;;;;0.00;0.00;;;16.00;91.20;;;;;;4145400;28;20474;-65
2022/10/02 03:43:38;;;;;;;3.03;2.35;;;16.00;91.10;;;;;;4144903;28;20490;-65
2022/10/02 03:46:19;;;;;;;0.00;0.00;;;16.00;91.10;;;;;;4145007;28;20572;-65
2022/10/02 03:49:00;;;;;;;0.00;0.00;;;16.00;91.20;;;;;;4158639;28;20056;-65
2022/10/02 03:51:41;;;;;;;0.15;0.15;;;16.00;91.20;;;;;;4158700;28;20056;-65
2022/10/02 03:54:23;;;;;;;1.77;1.67;;;16.00;91.20;;;;;;4160527;28;20052;-66
2022/10/02 03:57:07;;;;;;;0.00;0.00;;;16.00;91.50;;;;;;4160891;28;20060;-66
2022/10/02 03:59:55;;;;;;;0.00;0.00;;;16.00;91.20;;;;;;4144893;28;20143;-66
2022/10/02 04:02:40;;;;;;;0.00;0.00;;;16.00;91.20;;;;;;4144966;28;20187;-66
2022/10/02 04:05:25;;;;;;;0.00;0.00;;;16.00;91.20;;;;;;4144565;28;20061;-66
2022/10/02 04:08:12;;;;;;;0.00;0.00;;;16.00;91.20;;;;;;4144599;28;20139;-65
2022/10/02 04:11:00;;;;;;;0.10;0.10;;;16.00;91.20;;;;;;4156226;28;20409;-66
2022/10/02 04:13:47;;;;;;;0.00;0.00;;;16.00;91.20;;;;;;4160493;28;20068;-65
2022/10/02 04:16:33;;;;;;;0.00;0.00;;;16.00;91.20;;;;;;4160798;28;20056;-66
2022/10/02 04:19:21;;;;;;;0.00;0.00;;;16.00;91.20;;;;;;4145900;28;20073;-66
2022/10/02 04:22:08;;;;;;;0.00;0.00;;;16.00;91.20;;;;;;4144440;28;20056;-66
2022/10/02 04:24:57;;;;;;;0.00;0.00;;;16.00;91.30;;;;;;4144693;28;20052;-66
2022/10/02 04:27:42;;;;;;;0.00;0.00;;;16.00;91.30;;;;;;4145220;28;20053;-66
2022/10/02 04:30:23;;;;;;;1.08;1.08;;;16.00;91.30;;;;;;4160990;28;20260;-65
2022/10/02 04:33:11;;;;;;;0.00;0.00;;;16.00;91.30;;;;;;4160096;28;20060;-66
2022/10/02 04:36:04;;;;;;;0.00;0.00;;;16.00;91.30;;;;;;4159756;28;20044;-65
2022/10/02 04:39:07;;;;;;;0.20;0.20;;;16.00;91.30;;;;;;4160389;28;20102;-65
2022/10/02 04:42:16;;;;;;;0.00;0.00;;;16.00;91.30;;;;;;4160151;28;20052;-65
2022/10/02 04:45:16;;;;;;;0.00;0.00;;;16.00;91.30;;;;;;4144314;28;20103;-65
2022/10/02 04:48:27;;;;;;;0.00;0.00;;;15.90;91.30;;;;;;4143591;28;20045;-65
2022/10/02 04:51:19;;;;;;;0.00;0.00;;;15.90;91.30;;;;;;4144133;28;20123;-65
2022/10/02 04:54:17;;;;;;;0.00;0.00;;;15.90;91.30;;;;;;4143671;28;20056;-65
2022/10/02 04:57:19;;;;;;;0.00;0.00;;;16.00;91.30;;;;;;4143438;28;20103;-65
2022/10/02 05:00:09;;;;;;;0.00;0.00;;;16.00;91.50;;;;;;4147773;28;20056;-65
2022/10/02 05:03:05;;;;;;;0.00;0.00;;;16.00;91.40;;;;;;4159347;28;20080;-65
2022/10/02 05:06:06;;;;;;;0.10;0.10;;;16.00;91.30;;;;;;4159025;28;20049;-65
2022/10/02 05:08:59;;;;;;;0.00;0.00;;;16.00;91.30;;;;;;4159979;28;20064;-65
2022/10/02 05:11:53;;;;;;;0.00;0.00;;;15.90;91.40;;;;;;4160072;28;20418;-65
2022/10/02 05:14:55;;;;;;;0.00;0.00;;;15.90;91.30;;;;;;4159155;28;20597;-65
2022/10/02 05:17:55;;;;;;;0.10;0.10;;;15.90;91.40;;;;;;4154899;28;20064;-65
2022/10/02 05:20:52;;;;;;;0.00;0.00;;;16.00;91.40;;;;;;4159725;28;20053;-65
2022/10/02 05:23:46;;;;;;;0.00;0.00;;;15.90;91.70;;;;;;4159384;28;20072;-65
2022/10/02 05:26:45;;;;;;;0.00;0.00;;;15.90;91.40;;;;;;4142981;28;20056;-65
2022/10/02 05:29:43;;;;;;;0.00;0.00;;;15.90;91.40;;;;;;4142010;28;20126;-64
2022/10/02 05:32:41;;;;;;;0.00;0.00;;;15.90;91.40;;;;;;4143283;28;20061;-65
2022/10/02 05:35:44;;;;;;;0.00;0.00;;;15.90;91.40;;;;;;4152231;28;20152;-65
2022/10/02 05:38:45;;;;;;;0.15;0.15;;;15.90;91.40;;;;;;4143196;28;20065;-65
2022/10/02 05:41:33;;;;;;;0.00;0.00;;;15.90;91.40;;;;;;4142800;28;20057;-65
2022/10/02 05:44:17;;;;;;;0.73;0.73;;;15.90;91.40;;;;;;4143237;28;20076;-65
2022/10/02 05:47:07;;;;;;;0.00;0.00;;;15.90;91.40;;;;;;4143389;28;20086;-66
2022/10/02 05:49:53;;;;;;;0.00;0.00;;;15.90;91.50;;;;;;4142978;28;20057;-65
2022/10/02 05:52:42;;;;;;;0.00;0.00;;;16.00;91.80;;;;;;4143304;28;20394;-65
2022/10/02 05:55:31;;;;;;;0.00;0.00;;;16.00;91.60;;;;;;4151198;28;20111;-65
2022/10/02 05:58:19;;;;;;;0.00;0.00;;;16.00;91.50;;;;;;4154136;28;20176;-65
2022/10/02 06:01:06;;;;;;;0.00;0.00;;;16.00;91.50;;;;;;4154714;28;20076;-65
2022/10/02 06:03:51;;;;;;;0.00;0.00;;;16.00;91.50;;;;;;4157885;28;20059;-65
2022/10/02 06:06:38;;;;;;;0.00;0.00;;;16.00;91.80;;;;;;4142736;28;20106;-65
2022/10/02 06:09:24;;;;;;;0.00;0.00;;;16.00;91.40;;;;;;4143020;28;20070;-65
2022/10/02 06:12:09;;;;;;;0.00;0.00;;;16.00;91.40;;;;;;4142306;28;20056;-65
2022/10/02 06:14:54;;;;;;;0.10;0.10;;;16.00;91.40;;;;;;4144801;28;20141;-65
2022/10/02 06:17:41;;;;;;;0.00;0.00;;;16.00;91.40;;;;;;4159473;28;20098;-65
2022/10/02 06:20:26;;;;;;;0.00;0.00;;;16.00;91.40;;;;;;4142973;28;20505;-65
2022/10/02 06:23:12;;;;;;;0.00;0.00;;;15.90;91.40;;;;;;4142904;28;20855;-65
2022/10/02 06:25:57;;;;;;;0.05;0.05;;;15.90;91.30;;;;;;4152475;28;20570;-65
2022/10/02 06:28:43;;;;;;;0.00;0.00;;;15.90;91.70;;;;;;4159153;28;20746;-65
2022/10/02 06:31:40;;;;;;;0.00;0.00;;;15.90;91.40;;;;;;4158964;28;20094;-65
2022/10/02 06:34:22;;;;;;;0.00;0.00;;;15.90;91.40;;;;;;4158248;28;20056;-65
2022/10/02 06:37:25;;;;;;;1.42;1.35;;;15.90;91.40;;;;;;4147865;28;20049;-65
2022/10/02 06:40:37;;;;;;;0.00;0.00;;;15.90;91.40;;;;;;4158337;28;20141;-65
2022/10/02 06:43:44;;;;;;;0.00;0.00;;;15.90;91.40;;;;;;4158166;28;20207;-65
2022/10/02 06:46:32;;;;;;;0.00;0.00;;;15.90;91.40;;;;;;4158526;28;20057;-65
2022/10/02 06:49:25;;;;;;;0.03;0.03;;;15.90;91.30;;;;;;4158744;28;20123;-65
2022/10/02 06:52:20;;;;;;;0.00;0.00;;;15.90;91.20;;;;;;4154638;28;20462;-65
2022/10/02 06:55:22;;;;;;;0.00;0.00;;;15.90;91.20;;;;;;4152138;28;20525;-65
2022/10/02 06:58:30;;;;;;;0.00;0.00;;;15.90;91.20;;;;;;4161772;28;20053;-66
2022/10/02 07:01:24;;;;;;;0.55;0.55;;;16.00;91.20;;;;;;4161383;28;20064;-65
2022/10/02 07:04:22;;;;;;;0.20;0.20;;;15.90;91.00;;;;;;4149018;28;20135;-65
2022/10/02 07:07:23;;;;;;;0.00;0.00;;;16.00;91.00;;;;;;4145345;28;20485;-65
2022/10/02 07:10:17;;;;;;;0.25;0.25;;;15.90;90.90;;;;;;4144111;28;20163;-65
2022/10/02 07:13:21;;;;;;;0.00;0.00;;;15.90;90.80;;;;;;4146006;28;20061;-65
2022/10/02 07:16:35;;;;;;;0.00;0.00;;;15.90;90.80;;;;;;4145232;28;20185;-65
2022/10/02 07:19:41;;;;;;;0.00;0.00;;;15.90;90.90;;;;;;4128465;28;20106;-65
2022/10/02 07:22:33;;;;;;;0.00;0.00;;;15.90;90.90;;;;;;4150451;28;20055;-65
2022/10/02 07:25:45;;;;;;;0.00;0.00;;;15.90;90.80;;;;;;4159663;28;20059;-65
2022/10/02 07:28:37;;;;;;;0.00;0.00;;;15.90;90.80;;;;;;4144956;28;20788;-65
2022/10/02 07:31:21;;;;;;;;;;;15.90;90.70;;;;;;4145715;28;20057;-66
2022/10/02 07:34:26;;;;;;;0.73;0.73;;;15.90;90.70;;;;;;4152628;28;20400;-65
2022/10/02 07:37:17;;;;;;;0.00;0.00;;;15.90;90.70;;;;;;4159493;28;20056;-65
2022/10/02 07:40:19;;;;;;;0.00;0.00;;;15.90;91.10;;;;;;4148720;28;20052;-65
2022/10/02 07:43:13;;;;;;;2.15;0.73;;;15.90;90.80;;;;;;4144787;28;20124;-65
2022/10/02 07:46:01;;;;;;;0.00;0.00;;;15.90;90.80;;;;;;4149130;28;20102;-65
2022/10/02 07:49:11;;;;;;;0.43;0.43;;;15.90;90.80;;;;;;4151692;28;20060;-65
2022/10/02 07:52:01;;;;;;;0.43;0.43;;;15.90;90.80;;;;;;4155582;28;20086;-65
2022/10/02 07:54:58;;;;;;;0.00;0.00;;;15.90;90.90;;;;;;4160402;28;20099;-65
2022/10/02 07:57:44;;;;;;;0.00;0.00;;;15.90;90.90;;;;;;4161099;28;20049;-65
2022/10/02 08:00:28;;;;;;;0.00;0.00;;;16.00;90.90;;;;;;4156151;28;20057;-65
2022/10/02 08:03:15;;;;;;;0.00;0.00;;;16.00;90.90;;;;;;4150525;28;20049;-65
2022/10/02 08:05:58;;;;;;;0.00;0.00;;;16.00;90.90;;;;;;4153306;28;20560;-65
2022/10/02 08:08:47;;;;;;;0.00;0.00;;;16.00;90.80;;;;;;4144073;28;20061;-65
2022/10/02 08:11:31;;;;;;;0.00;0.00;;;16.00;90.80;;;;;;4144593;28;20069;-65
2022/10/02 08:14:18;;;;;;;0.00;0.00;;;16.00;90.80;;;;;;4144413;28;20257;-66
2022/10/02 08:17:18;;;;;;;11.77;3.30;;;16.00;90.70;;;;;;4144201;28;20052;-66
2022/10/02 08:20:05;;;;;;;10.38;1.60;;;16.00;90.70;;;;;;4144676;28;20503;-66
2022/10/02 08:22:48;;;;;;;0.00;0.00;;;16.00;90.70;;;;;;4144516;28;20112;-66
2022/10/02 08:25:37;;;;;;;0.10;0.10;;;16.00;90.70;;;;;;4144316;28;20052;-66
2022/10/02 08:28:24;;;;;;;0.08;0.08;;;16.00;90.70;;;;;;4144523;28;20056;-66
2022/10/02 08:31:10;;;;;;;1.75;1.40;;;16.00;90.70;;;;;;4157967;28;20055;-66
2022/10/02 08:33:51;;;;;;;0.00;0.00;;;16.00;90.70;;;;;;4157064;28;20099;-66
2022/10/02 08:36:58;;;;;;;0.43;0.43;;;16.10;90.70;;;;;;4143894;28;20506;-65
2022/10/02 08:39:54;;;;;;;0.00;0.00;;;16.10;90.70;;;;;;4151106;28;20057;-65
2022/10/02 08:43:31;;;;;;;0.00;0.00;;;16.00;90.70;;;;;;4153414;28;20191;-66
2022/10/02 08:46:57;;;;;;;0.03;0.03;;;16.10;90.70;;;;;;4159967;28;20052;-63
2022/10/02 08:50:19;;;;;;;0.05;0.05;;;16.10;90.60;;;;;;4158632;28;20117;-64
2022/10/02 08:53:35;;;;;;;0.00;0.00;;;16.10;90.60;;;;;;4160234;28;20057;-61
2022/10/02 08:56:30;;;;;;;0.00;0.00;;;16.10;91.00;;;;;;4158427;28;20183;-61
2022/10/02 09:00:04;;;;;;;0.10;0.10;;;16.10;90.70;;;;;;4158858;28;20040;-61
2022/10/02 09:03:27;;;;;;;0.00;0.00;;;16.10;90.60;;;;;;4143512;28;20128;-61
2022/10/02 09:06:41;;;;;;;0.80;0.77;;;16.10;90.60;;;;;;4141601;28;20509;-62
2022/10/02 09:09:58;;;;;;;0.00;0.00;;;16.10;90.60;;;;;;4155029;28;20068;-61
2022/10/02 09:13:24;;;;;;;0.40;0.40;;;16.10;90.60;;;;;;4156279;28;20521;-61
2022/10/02 09:16:11;;;;;;;0.00;0.00;;;16.10;90.60;;;;;;4116888;28;20422;-61
2022/10/02 09:19:00;;;;;;;0.00;0.00;;;16.10;90.70;;;;;;4148658;28;20056;-61
2022/10/02 09:21:51;;;;;;;1.02;1.00;;;16.10;90.70;;;;;;4157126;28;20053;-61
2022/10/02 09:25:03;;;;;;;0.00;0.00;;;16.10;90.70;;;;;;4156908;28;21069;-63
2022/10/02 09:28:17;;;;;;;0.00;0.00;;;16.10;90.80;;;;;;4156712;28;20052;-63
2022/10/02 09:31:29;;;;;;;0.00;0.00;;;16.10;90.80;;;;;;4147928;28;20065;-63
2022/10/02 09:34:42;;;;;;;0.00;0.00;;;16.10;90.80;;;;;;4140215;28;20052;-63
2022/10/02 09:37:47;;;;;;;0.00;0.00;;;16.10;90.80;;;;;;4142830;28;20191;-63
2022/10/02 09:41:01;;;;;;;0.00;0.00;;;16.10;90.90;;;;;;4151807;28;20052;-61
2022/10/02 09:44:20;;;;;;;3.08;0.77;;;16.10;90.90;;;;;;4140493;28;20052;-61
2022/10/02 09:47:27;;;;;;;0.20;0.20;;;16.20;90.90;;;;;;4148746;28;20053;-61
2022/10/02 09:50:51;;;;;;;0.00;0.00;;;16.20;90.90;;;;;;4131422;28;20052;-61
2022/10/02 09:53:57;;;;;;;0.05;0.05;;;16.30;90.90;;;;;;4142476;28;20064;-58
2022/10/02 09:57:05;;;;;;;0.00;0.00;;;16.20;90.80;;;;;;4148997;28;20045;-61
2022/10/02 10:00:17;;;;;;;0.00;0.00;;;16.30;90.70;;;;;;4159151;28;20044;-61
2022/10/02 10:03:47;;;;;;;0.00;0.00;;;16.40;90.70;;;;;;4158972;28;20053;-61
2022/10/02 10:07:18;;;;;;;0.00;0.00;;;16.40;90.70;;;;;;4156714;28;20060;-62
2022/10/02 10:10:19;;;;;;;0.43;0.43;;;16.40;90.70;;;;;;4138129;28;20096;-62
2022/10/02 10:13:23;;;;;;;0.00;0.00;;;16.50;90.70;;;;;;4158418;28;20056;-62
2022/10/02 10:16:56;;;;;;;0.30;0.30;;;16.50;90.80;;;;;;4156015;28;20099;-65
2022/10/02 10:20:13;;;;;;;0.30;0.30;;;16.60;90.80;;;;;;4157815;28;20084;-63
2022/10/02 10:23:34;;;;;;;0.00;0.00;;;16.60;90.70;;;;;;4155810;28;20044;-63
2022/10/02 10:26:37;;;;;;;0.10;0.10;;;16.60;90.70;;;;;;4141399;28;20060;-62
2022/10/02 10:29:49;;;;;;;0.00;0.00;;;16.70;90.70;;;;;;4139228;28;20045;-63
2022/10/02 10:33:07;;;;;;;0.10;0.10;;;16.70;90.60;;;;;;4139578;28;20760;-63
2022/10/02 10:39:57;;;;;;;;;;;16.80;90.50;;;;;;4148720;28;20061;-62
2022/10/02 10:43:11;;;;;;;0.00;0.00;;;16.80;90.40;;;;;;4139836;28;19928;-62
2022/10/02 10:46:15;;;;;;;0.03;0.03;;;16.90;90.30;;;;;;4150360;28;20148;-62
2022/10/02 10:49:15;;;;;;;0.00;0.00;;;16.90;90.20;;;;;;4158350;28;20053;-63
2022/10/02 10:52:10;;;;;;;0.73;0.68;;;17.00;90.00;;;;;;4140291;28;20214;-63
2022/10/02 10:55:07;;;;;;;0.52;0.52;;;17.00;90.20;;;;;;4140624;28;20200;-63
2022/10/02 10:58:04;;;;;;;0.22;0.22;;;17.10;89.40;;;;;;4143230;28;20180;-62
2022/10/02 11:00:57;;;;;;;0.00;0.00;;;17.00;89.10;;;;;;4155603;28;20151;-62
2022/10/02 11:04:06;;;;;;;0.00;0.00;;;17.10;88.80;;;;;;4158491;28;20053;-62
2022/10/02 11:07:01;;;;;;;0.00;0.00;;;17.10;88.70;;;;;;4158191;28;20043;-62
2022/10/02 11:10:10;;;;;;;0.00;0.00;;;17.10;88.40;;;;;;4158206;28;20056;-62
2022/10/02 11:13:08;;;;;;;0.00;0.00;;;17.10;88.30;;;;;;4158432;28;20060;-61
2022/10/02 11:16:09;;;;;;;0.00;0.00;;;17.10;88.30;;;;;;4157259;28;20180;-61
2022/10/02 11:18:57;;;;;;;;;;;17.20;88.30;;;;;;4157159;28;20044;-61
2022/10/02 11:21:55;;;;;;;0.35;0.35;;;17.20;88.20;;;;;;4158653;28;20623;-62
2022/10/02 11:24:54;;;;;;;0.00;0.00;;;17.20;87.90;;;;;;4158287;28;20056;-62
2022/10/02 11:28:05;;;;;;;0.00;0.00;;;17.20;87.60;;;;;;4158335;28;20501;-62
2022/10/02 11:30:54;;;;;;;0.10;0.10;;;17.30;87.50;;;;;;4146820;28;20048;-64
2022/10/02 11:34:11;;;;;;;0.00;0.00;;;17.30;87.70;;;;;;4152754;28;20056;-65
2022/10/02 11:37:08;;;;;;;0.03;0.03;;;17.40;86.80;;;;;;4090016;28;20062;-64
2022/10/02 11:40:19;;;;;;;2.63;2.28;;;17.40;86.40;;;;;;4151224;28;20064;-63
2022/10/02 11:43:37;;;;;;;0.00;0.00;;;17.40;86.30;;;;;;4161176;28;20536;-61
2022/10/02 11:46:42;;;;;;;0.00;0.00;;;17.40;86.00;;;;;;4160550;28;20067;-62
2022/10/02 11:49:57;;;;;;;0.00;0.00;;;17.50;86.10;;;;;;4153706;28;20060;-62
2022/10/02 11:53:10;;;;;;;0.00;0.00;;;17.50;85.60;;;;;;4145883;28;20060;-62
2022/10/02 11:56:11;;;;;;;0.00;0.00;;;17.50;85.20;;;;;;4144811;28;20048;-63
2022/10/02 11:59:05;;;;;;;;;;;17.60;84.60;;;;;;4144994;28;20220;-63
2022/10/02 12:01:53;;;;;;;2.83;2.08;;;17.50;84.20;;;;;;4144611;28;19929;-64
2022/10/02 12:04:42;;;;;;;0.00;0.00;;;17.50;84.00;;;;;;4144484;28;20056;-63
2022/10/02 12:07:33;;;;;;;1.85;1.75;;;17.60;84.30;;;;;;4144678;28;20057;-63
2022/10/02 12:10:38;;;;;;;0.00;0.00;;;17.60;84.30;;;;;;4144617;28;20061;-64
2022/10/02 12:13:39;;;;;;;0.00;0.00;;;17.70;83.70;;;;;;4144581;28;20151;-63
2022/10/02 12:16:36;;;;;;;0.00;0.00;;;17.70;83.60;;;;;;4144621;28;20045;-64
2022/10/02 12:19:30;;;;;;;0.00;0.00;;;17.70;83.50;;;;;;4148298;28;20068;-64
2022/10/02 12:28:35;;;;;;;0.47;0.43;;;17.80;83.10;;;;;;4154628;28;20056;-63
2022/10/02 12:31:27;;;;;;;0.00;0.00;;;17.80;82.80;;;;;;4145027;28;20358;-64
2022/10/02 12:34:23;;;;;;;0.00;0.00;;;17.80;82.00;;;;;;4155097;28;20184;-62
2022/10/02 12:37:09;;;;;;;0.22;0.22;;;17.80;81.90;;;;;;4155645;28;20057;-62
2022/10/02 12:40:00;;;;;;;0.52;0.52;;;17.90;82.00;;;;;;4160616;28;20068;-62
2022/10/02 12:43:16;;;;;;;4.75;2.20;;;17.90;82.40;;;;;;4144007;28;20641;-64
2022/10/02 12:46:23;;;;;;;0.00;0.00;;;17.90;82.80;;;;;;4142731;28;20057;-65
2022/10/02 12:49:24;;;;;;;0.45;0.45;;;18.00;83.00;;;;;;4143805;28;20041;-63
2022/10/02 12:52:27;;;;;;;0.00;0.00;;;18.00;82.20;;;;;;4160078;28;20180;-62
2022/10/02 12:55:50;;;;;;;0.00;0.00;;;18.00;82.50;;;;;;4160302;28;20057;-63
2022/10/02 12:58:42;;;;;;;0.00;0.00;;;18.10;82.60;;;;;;4159697;28;20418;-63
2022/10/02 13:02:12;;;;;;;0.00;0.00;;;18.10;82.40;;;;;;4160238;28;20184;-63
2022/10/02 13:05:39;;;;;;;0.20;0.20;;;18.10;82.10;;;;;;4155058;28;20061;-63
2022/10/02 13:09:05;;;;;;;0.20;0.20;;;18.10;81.50;;;;;;4143590;28;20065;-63
2022/10/02 13:11:57;;;;;;;0.00;0.00;;;18.10;81.40;;;;;;4093248;28;20045;-63
2022/10/02 13:15:21;;;;;;;0.00;0.00;;;18.10;81.40;;;;;;4143519;28;20052;-64
2022/10/02 13:18:25;;;;;;;0.00;0.00;;;18.20;81.90;;;;;;4143407;28;20057;-63
2022/10/02 13:21:14;;;;;;;0.00;0.00;;;18.20;81.80;;;;;;4143322;28;20049;-63
2022/10/02 13:24:11;;;;;;;0.10;0.10;;;18.20;81.60;;;;;;4143466;28;20064;-63
2022/10/02 13:27:03;;;;;;;3.10;1.45;;;18.20;81.40;;;;;;4143220;28;20124;-63
2022/10/02 13:29:56;;;;;;;0.00;0.00;;;18.20;81.90;;;;;;4142149;28;20069;-63
2022/10/02 13:33:04;;;;;;;0.00;0.00;;;18.20;81.70;;;;;;4141998;28;20053;-64
2022/10/02 13:35:59;;;;;;;0.00;0.00;;;18.20;81.40;;;;;;4142996;28;20052;-63
2022/10/02 13:39:16;;;;;;;0.00;0.00;;;18.30;82.10;;;;;;4143045;28;20064;-63
2022/10/02 13:42:11;;;;;;;1.25;0.98;;;18.30;83.10;;;;;;4143231;28;20061;-63
2022/10/02 13:45:00;;;;;;;0.00;0.00;;;18.40;82.20;;;;;;4142411;28;20152;-71
2022/10/02 13:47:43;;;;;;;0.00;0.00;;;18.30;82.20;;;;;;4142896;28;20052;-70
2022/10/02 13:50:46;;;;;;;0.30;0.30;;;18.30;82.30;;;;;;4142730;28;20053;-70
2022/10/02 13:53:39;;;;;;;0.00;0.00;;;18.40;82.60;;;;;;4143005;28;20395;-70
2022/10/02 13:56:35;;;;;;;0.73;0.73;;;18.30;82.10;;;;;;4142563;28;20127;-70
2022/10/02 13:59:31;;;;;;;3.50;0.95;;;18.40;82.90;;;;;;4142799;28;20205;-70
2022/10/02 14:02:24;;;;;;;0.00;0.00;;;18.40;83.20;;;;;;4141912;28;20053;-69
2022/10/02 14:05:12;;;;;;;0.00;0.00;;;18.40;83.20;;;;;;4141306;28;20049;-69
2022/10/02 14:08:35;;;;;;;0.00;0.00;;;18.50;83.10;;;;;;4142481;28;20049;-69
2022/10/02 14:11:28;;;;;;;0.00;0.00;;;18.50;82.90;;;;;;4129345;28;20057;-69
2022/10/02 14:14:25;;;;;;;0.00;0.00;;;18.50;82.40;;;;;;4139863;28;20084;-69
2022/10/02 14:17:18;;;;;;;2.47;2.28;;;18.50;82.10;;;;;;4135463;28;20166;-70
2022/10/02 14:20:10;;;;;;;0.00;0.00;;;18.50;82.00;;;;;;4142646;28;20053;-69
2022/10/02 14:23:13;;;;;;;0.00;0.00;;;18.50;81.80;;;;;;4142498;28;20046;-69
2022/10/02 14:26:06;;;;;;;0.00;0.00;;;18.60;81.90;;;;;;4142273;28;20420;-69
2022/10/02 14:29:21;;;;;;;0.00;0.00;;;18.60;81.80;;;;;;4141659;28;20057;-68
2022/10/02 14:32:23;;;;;;;0.10;0.10;;;18.60;82.10;;;;;;4142580;28;20048;-68
2022/10/02 14:35:30;;;;;;;0.00;0.00;;;18.60;81.50;;;;;;4140565;28;20161;-69
2022/10/02 14:38:42;;;;;;;0.00;0.00;;;18.60;80.80;;;;;;4135622;28;20200;-63
2022/10/02 14:41:42;;;;;;;0.00;0.00;;;18.60;81.30;;;;;;4147265;28;20083;-65
2022/10/02 14:44:55;;;;;;;0.00;0.00;;;18.60;80.80;;;;;;4142148;28;20053;-63
2022/10/02 14:47:58;;;;;;;0.00;0.00;;;18.60;80.70;;;;;;4141739;28;20599;-62
2022/10/02 14:51:07;;;;;;;0.00;0.00;;;18.60;80.80;;;;;;4141155;28;20471;-63
2022/10/02 14:53:59;;;;;;;0.00;0.00;;;18.60;81.00;;;;;;4148046;28;20053;-62
2022/10/02 14:56:55;;;;;;;0.00;0.00;;;18.60;80.70;;;;;;4141484;28;20104;-65
2022/10/02 14:59:57;;;;;;;0.00;0.00;;;18.60;80.40;;;;;;4144967;28;20053;-65
2022/10/02 15:03:10;;;;;;;0.00;0.00;;;18.60;80.50;;;;;;4158372;28;20451;-62
2022/10/02 15:06:08;;;;;;;0.00;0.00;;;18.60;80.20;;;;;;4157287;28;20057;-63
2022/10/02 15:08:54;;;;;;;0.40;0.40;;;18.60;80.40;;;;;;4158125;28;20103;-60
2022/10/02 15:12:06;;;;;;;0.50;0.50;;;18.60;80.90;;;;;;4154077;28;20498;-61
2022/10/02 15:14:58;;;;;;;0.28;0.28;;;18.60;80.90;;;;;;4141604;28;20413;-63
2022/10/02 15:17:55;;;;;;;0.00;0.00;;;18.60;81.00;;;;;;4143666;28;20184;-61
2022/10/02 15:20:47;;;;;;;1.35;1.13;;;18.70;80.60;;;;;;4155762;28;20124;-61
2022/10/02 15:23:42;;;;;;;0.10;0.10;;;18.60;80.50;;;;;;4147486;28;20080;-60
2022/10/02 15:26:54;;;;;;;0.00;0.00;;;18.60;80.50;;;;;;4161205;28;20049;-63